createdAt,value
2018-07-06T00:02:37.945Z,82.40
2018-07-06T00:05:17.833Z,82.40
2018-07-06T00:07:57.513Z,82.80
2018-07-06T00:10:37.082Z,83.30
2018-07-06T00:13:16.821Z,83.90
2018-07-06T00:15:56.469Z,84.20
2018-07-06T00:18:36.232Z,84.40
2018-07-06T00:21:15.993Z,84.70
2018-07-06T00:23:55.806Z,85.40
2018-07-06T00:26:35.578Z,85.60
2018-07-06T00:29:15.390Z,85.50
2018-07-06T00:31:55.292Z,85.90
2018-07-06T00:34:35.073Z,86.20
2018-07-06T00:37:14.894Z,86.70
2018-07-06T00:39:54.566Z,87.20
2018-07-06T00:42:34.294Z,87.50
2018-07-06T00:45:13.936Z,88.00
2018-07-06T00:47:53.536Z,88.10
2018-07-06T00:50:33.330Z,88.40
2018-07-06T00:53:13.110Z,88.50
2018-07-06T00:55:52.842Z,88.80
2018-07-06T00:58:32.424Z,89.20
2018-07-06T01:01:12.320Z,89.70
2018-07-06T01:03:52.318Z,90.20
2018-07-06T01:06:32.024Z,90.00
2018-07-06T01:09:11.710Z,90.00
2018-07-06T01:11:51.443Z,90.20
2018-07-06T01:14:31.328Z,90.30
2018-07-06T01:17:16.031Z,90.20
2018-07-06T01:19:56.326Z,90.50
2018-07-06T01:22:36.019Z,90.50
2018-07-06T01:25:15.738Z,90.50
2018-07-06T01:27:55.348Z,90.60
2018-07-06T01:30:35.020Z,90.60
2018-07-06T01:33:14.818Z,90.90
2018-07-06T01:35:54.764Z,90.90
2018-07-06T01:38:34.433Z,90.80
2018-07-06T01:41:14.167Z,91.00
2018-07-06T01:43:54.063Z,91.20
2018-07-06T01:46:33.777Z,91.20
2018-07-06T01:49:13.501Z,91.50
2018-07-06T01:51:53.164Z,91.50
2018-07-06T01:54:32.984Z,91.50
2018-07-06T01:57:12.940Z,92.00
2018-07-06T01:59:52.921Z,91.90
2018-07-06T02:02:32.677Z,92.00
2018-07-06T02:05:12.511Z,92.00
2018-07-06T02:07:52.465Z,92.10
2018-07-06T02:10:32.302Z,92.30
2018-07-06T02:13:12.393Z,92.40
2018-07-06T02:15:52.444Z,92.30
2018-07-06T02:18:32.132Z,92.70
2018-07-06T02:21:11.844Z,92.70
2018-07-06T02:23:51.506Z,92.90
2018-07-06T02:26:31.268Z,92.80
2018-07-06T02:29:11.002Z,92.90
2018-07-06T02:31:50.956Z,93.00
2018-07-06T02:34:30.666Z,93.10
2018-07-06T02:37:10.450Z,93.10
2018-07-06T02:39:50.210Z,93.20
2018-07-06T02:42:29.887Z,93.10
2018-07-06T02:45:09.637Z,93.30
2018-07-06T02:47:49.428Z,93.20
2018-07-06T02:50:29.297Z,93.30
2018-07-06T02:53:08.943Z,93.20
2018-07-06T02:55:49.085Z,93.40
2018-07-06T02:58:28.975Z,93.60
2018-07-06T03:01:09.117Z,93.50
2018-07-06T03:03:49.305Z,93.60
2018-07-06T03:06:29.480Z,93.60
2018-07-06T03:09:09.585Z,93.60
2018-07-06T03:11:49.394Z,93.70
2018-07-06T03:14:29.301Z,93.60
2018-07-06T03:17:09.032Z,93.80
2018-07-06T03:19:49.197Z,94.30
2018-07-06T03:22:29.185Z,94.10
2018-07-06T03:25:09.029Z,94.20
2018-07-06T03:27:49.316Z,94.10
2018-07-06T03:30:29.201Z,94.20
2018-07-06T03:33:09.604Z,94.40
2018-07-06T03:35:49.454Z,94.30
2018-07-06T03:38:29.402Z,94.00
2018-07-06T03:41:09.868Z,94.10
2018-07-06T03:43:49.786Z,94.00
2018-07-06T03:46:30.007Z,94.00
2018-07-06T03:49:10.114Z,93.80
2018-07-06T03:51:50.337Z,93.60
2018-07-06T03:54:30.583Z,93.50
2018-07-06T03:57:10.652Z,93.50
2018-07-06T03:59:50.564Z,93.40
2018-07-06T04:02:30.663Z,93.30
2018-07-06T04:05:10.594Z,93.20
2018-07-06T04:07:51.063Z,93.10
2018-07-06T04:10:31.237Z,91.60
2018-07-06T04:13:11.604Z,88.90
2018-07-06T04:15:51.481Z,84.60
2018-07-06T04:18:31.355Z,80.70
2018-07-06T04:21:11.500Z,74.00
2018-07-06T04:23:51.604Z,70.40
2018-07-06T04:26:32.010Z,67.70
2018-07-06T04:29:12.021Z,64.40
2018-07-06T04:31:51.986Z,62.40
2018-07-06T04:34:31.840Z,60.10
2018-07-06T04:37:11.645Z,58.60
2018-07-06T04:39:51.417Z,57.30
2018-07-06T04:42:31.102Z,56.60
2018-07-06T04:45:10.851Z,54.50
2018-07-06T04:47:50.685Z,53.70
2018-07-06T04:50:30.349Z,52.90
2018-07-06T04:53:10.257Z,51.90
2018-07-06T04:55:50.149Z,50.60
2018-07-06T04:58:29.873Z,49.90
2018-07-06T05:01:09.909Z,49.00
2018-07-06T05:03:49.649Z,48.10
2018-07-06T05:06:29.447Z,47.60
2018-07-06T05:09:08.996Z,47.10
2018-07-06T05:11:48.845Z,48.10
2018-07-06T05:14:28.500Z,49.30
2018-07-06T05:17:08.148Z,50.90
2018-07-06T05:19:47.946Z,52.70
2018-07-06T05:22:27.632Z,54.40
2018-07-06T05:25:07.671Z,55.80
2018-07-06T05:30:21.208Z,58.00
2018-07-06T05:33:00.810Z,58.30
2018-07-06T05:35:40.460Z,59.40
2018-07-06T05:38:20.170Z,60.10
2018-07-06T05:41:00.040Z,61.00
2018-07-06T05:43:40.031Z,61.50
2018-07-06T05:46:20.093Z,63.10
2018-07-06T05:49:00.134Z,64.30
2018-07-06T05:51:40.055Z,66.20
2018-07-06T05:54:19.720Z,66.40
2018-07-06T05:56:59.733Z,67.40
2018-07-06T05:59:39.621Z,68.20
2018-07-06T06:02:19.510Z,69.20
2018-07-06T06:04:59.791Z,70.60
2018-07-06T06:07:27.447Z,70.90
2018-07-06T06:09:56.379Z,70.10
2018-07-06T06:12:25.357Z,69.80
2018-07-06T06:14:54.464Z,70.50
2018-07-06T06:17:23.073Z,72.00
2018-07-06T06:19:51.699Z,72.90
2018-07-06T06:22:21.188Z,73.20
2018-07-06T06:24:50.272Z,72.00
2018-07-06T06:27:19.321Z,70.10
2018-07-06T06:29:48.637Z,70.50
2018-07-06T06:32:18.501Z,71.20
2018-07-06T06:34:47.843Z,70.80
2018-07-06T06:37:17.384Z,71.50
2018-07-06T06:39:46.740Z,70.40
2018-07-06T06:42:15.593Z,71.00
2018-07-06T06:44:45.077Z,70.50
2018-07-06T06:47:14.374Z,69.30
2018-07-06T06:49:44.179Z,67.60
2018-07-06T06:52:14.091Z,67.10
2018-07-06T06:54:43.395Z,67.30
2018-07-06T06:57:13.121Z,66.70
2018-07-06T06:59:42.960Z,65.40
2018-07-06T07:02:12.495Z,64.80
2018-07-06T07:04:41.563Z,63.80
2018-07-06T07:07:10.700Z,62.90
2018-07-06T07:09:40.171Z,61.20
2018-07-06T07:12:09.499Z,60.50
2018-07-06T07:14:38.670Z,59.50
2018-07-06T07:17:07.986Z,59.50
2018-07-06T07:19:37.611Z,60.10
2018-07-06T07:22:06.868Z,60.10
2018-07-06T07:24:36.277Z,61.00
2018-07-06T07:27:05.134Z,60.60
2018-07-06T07:29:33.959Z,61.20
2018-07-06T07:32:02.927Z,60.40
2018-07-06T07:34:31.664Z,60.50
2018-07-06T07:37:00.438Z,59.60
2018-07-06T07:39:29.177Z,59.00
2018-07-06T07:41:57.929Z,59.00
2018-07-06T07:44:26.615Z,59.10
2018-07-06T07:46:55.572Z,58.50
2018-07-06T07:49:24.290Z,58.80
2018-07-06T07:52:07.049Z,58.80
2018-07-06T07:55:00.559Z,58.50
2018-07-06T07:57:29.119Z,57.70
2018-07-06T07:59:57.632Z,57.80
2018-07-06T08:02:26.468Z,58.20
2018-07-06T08:04:55.082Z,58.00
2018-07-06T08:07:23.582Z,58.50
2018-07-06T08:09:52.415Z,57.60
2018-07-06T08:12:21.098Z,56.80
2018-07-06T08:14:50.703Z,54.60
2018-07-06T08:17:19.591Z,54.50
2018-07-06T08:19:48.430Z,54.60
2018-07-06T08:22:16.957Z,55.20
2018-07-06T08:24:45.430Z,55.40
2018-07-06T08:27:14.039Z,55.20
2018-07-06T08:29:42.565Z,55.50
2018-07-06T08:32:11.057Z,55.00
2018-07-06T08:34:50.880Z,55.10
2018-07-06T08:37:32.119Z,55.50
2018-07-06T08:40:00.665Z,55.30
2018-07-06T08:42:33.282Z,55.40
2018-07-06T08:45:02.250Z,55.50
2018-07-06T08:47:30.867Z,55.10
2018-07-06T08:50:00.217Z,55.70
2018-07-06T08:52:28.820Z,55.20
2018-07-06T08:54:57.286Z,55.20
2018-07-06T08:57:27.029Z,55.80
2018-07-06T08:59:55.860Z,55.00
2018-07-06T09:02:24.797Z,55.50
2018-07-06T09:04:54.222Z,56.10
2018-07-06T09:07:22.879Z,55.50
2018-07-06T09:09:51.951Z,55.10
2018-07-06T09:12:20.403Z,54.40
2018-07-06T09:14:48.931Z,53.10
2018-07-06T09:17:18.462Z,51.50
2018-07-06T09:19:47.390Z,49.90
2018-07-06T09:22:16.329Z,48.70
2018-07-06T09:27:14.177Z,45.20
2018-07-06T09:29:42.986Z,45.60
2018-07-06T09:32:11.707Z,43.30
2018-07-06T09:34:40.657Z,40.50
2018-07-06T09:37:09.350Z,38.10
2018-07-06T09:39:38.574Z,36.70
2018-07-06T09:42:07.328Z,35.50
2018-07-06T09:47:04.275Z,32.40
2018-07-06T09:49:33.012Z,31.40
2018-07-06T09:52:01.812Z,30.70
2018-07-06T09:54:30.390Z,30.00
2018-07-06T09:56:59.109Z,29.80
2018-07-06T09:59:28.001Z,30.50
2018-07-06T10:01:56.682Z,30.10
2018-07-06T10:04:25.349Z,29.90
2018-07-06T10:06:54.137Z,30.00
2018-07-06T10:09:22.899Z,29.50
2018-07-06T10:11:51.616Z,30.00
2018-07-06T10:14:20.526Z,28.90
2018-07-06T10:19:18.251Z,26.70
2018-07-06T10:21:47.566Z,25.60
2018-07-06T10:24:16.157Z,25.30
2018-07-06T10:26:45.460Z,25.80
2018-07-06T10:29:26.216Z,26.40
2018-07-06T10:32:09.654Z,26.40
2018-07-06T10:34:38.707Z,25.60
2018-07-06T10:37:08.801Z,25.60
2018-07-06T10:39:38.339Z,25.30
2018-07-06T10:42:07.725Z,25.60
2018-07-06T10:44:37.106Z,25.20
2018-07-06T10:47:06.136Z,26.30
2018-07-06T10:49:35.360Z,27.10
2018-07-06T10:52:04.097Z,27.30
2018-07-06T10:54:32.594Z,27.20
2018-07-06T10:57:01.234Z,27.10
2018-07-06T10:59:29.994Z,27.80
2018-07-06T11:01:58.948Z,27.50
2018-07-06T11:04:27.635Z,27.30
2018-07-06T11:06:57.083Z,27.50
2018-07-06T11:09:26.229Z,27.70
2018-07-06T11:11:55.337Z,27.50
2018-07-06T11:14:24.626Z,28.20
2018-07-06T11:29:53.105Z,30.00
2018-07-06T11:32:22.432Z,31.10
2018-07-06T11:34:51.658Z,34.10
2018-07-06T11:37:21.362Z,34.20
2018-07-06T11:39:50.639Z,34.80
2018-07-06T11:42:19.762Z,35.20
2018-07-06T11:44:48.957Z,34.90
2018-07-06T11:47:18.439Z,35.10
2018-07-06T11:49:47.859Z,35.40
2018-07-06T11:52:16.767Z,34.70
2018-07-06T11:54:46.150Z,35.70
2018-07-06T11:57:15.276Z,36.60
2018-07-06T11:59:44.781Z,37.20
2018-07-06T12:02:14.217Z,36.60
2018-07-06T12:04:43.817Z,36.30
2018-07-06T12:07:12.488Z,36.00
2018-07-06T12:09:41.224Z,35.00
2018-07-06T12:12:09.799Z,34.70
2018-07-06T12:14:38.481Z,34.80
2018-07-06T12:17:07.189Z,35.10
2018-07-06T12:19:35.845Z,36.00
2018-07-06T12:22:04.474Z,36.00
2018-07-06T12:24:33.095Z,36.40
2018-07-06T12:27:02.529Z,37.30
2018-07-06T12:29:31.039Z,37.70
2018-07-06T12:31:59.721Z,37.20
2018-07-06T12:34:28.293Z,35.80
2018-07-06T12:36:57.196Z,36.60
2018-07-06T12:39:25.918Z,37.00
2018-07-06T12:41:54.590Z,35.70
2018-07-06T12:44:23.230Z,34.60
2018-07-06T12:46:51.773Z,34.70
2018-07-06T12:49:20.461Z,33.80
2018-07-06T12:51:49.130Z,33.70
2018-07-06T12:54:17.809Z,34.80
2018-07-06T12:56:46.466Z,35.30
2018-07-06T12:59:15.400Z,34.50
2018-07-06T13:01:45.050Z,34.70
2018-07-06T13:04:14.119Z,35.20
2018-07-06T13:06:43.358Z,36.00
2018-07-06T13:09:12.156Z,35.70
2018-07-06T13:11:41.002Z,36.30
2018-07-06T13:14:09.958Z,35.80
2018-07-06T13:16:38.987Z,35.00
2018-07-06T13:21:36.377Z,34.00
2018-07-06T13:24:05.372Z,34.10
2018-07-06T13:26:34.411Z,33.90
2018-07-06T13:29:03.081Z,34.70
2018-07-06T13:31:32.012Z,34.40
2018-07-06T13:36:29.188Z,34.30
2018-07-06T13:38:58.095Z,34.30
2018-07-06T13:41:27.643Z,34.90
2018-07-06T13:43:56.539Z,35.00
2018-07-06T13:46:25.962Z,35.60
2018-07-06T13:48:54.753Z,36.50
2018-07-06T13:51:23.550Z,35.60
2018-07-06T13:53:52.689Z,34.50
2018-07-06T13:56:21.509Z,34.80
2018-07-06T13:58:50.867Z,34.90
2018-07-06T14:01:20.029Z,35.40
2018-07-06T14:03:48.931Z,35.90
2018-07-06T14:06:18.185Z,36.60
2018-07-06T14:11:16.066Z,37.70
2018-07-06T14:13:45.740Z,38.20
2018-07-06T14:16:15.076Z,38.80
2018-07-06T14:18:44.239Z,39.00
2018-07-06T14:21:13.293Z,39.40
2018-07-06T14:23:41.916Z,39.30
2018-07-06T14:26:11.551Z,39.90
2018-07-06T14:28:40.497Z,40.00
2018-07-06T14:31:09.632Z,39.80
2018-07-06T14:33:38.922Z,40.10
2018-07-06T14:36:08.121Z,40.90
2018-07-06T14:38:37.248Z,40.50
2018-07-06T14:41:07.137Z,40.90
2018-07-06T14:43:36.275Z,40.90
2018-07-06T14:46:05.852Z,40.50
2018-07-06T14:48:35.419Z,40.40
2018-07-06T14:51:04.397Z,40.50
2018-07-06T14:53:34.372Z,40.10
2018-07-06T14:56:03.021Z,40.10
2018-07-06T14:58:32.498Z,39.40
2018-07-06T15:01:01.949Z,39.60
2018-07-06T15:03:31.374Z,39.80
2018-07-06T15:06:00.528Z,39.80
2018-07-06T15:08:29.902Z,39.90
2018-07-06T15:10:58.692Z,40.30
2018-07-06T15:13:27.186Z,39.70
2018-07-06T15:15:55.889Z,39.50
2018-07-06T15:18:24.879Z,39.30
2018-07-06T15:20:54.233Z,38.90
2018-07-06T15:23:23.336Z,38.40
2018-07-06T15:25:52.601Z,38.30
2018-07-06T15:28:21.146Z,38.00
2018-07-06T15:30:50.071Z,37.80
2018-07-06T15:33:18.613Z,37.80
2018-07-06T15:35:47.182Z,37.00
2018-07-06T15:38:15.681Z,37.20
2018-07-06T15:40:44.216Z,36.90
2018-07-06T15:43:13.273Z,37.00
2018-07-06T15:45:42.153Z,37.10
2018-07-06T15:48:10.791Z,37.60
2018-07-06T15:50:39.623Z,37.60
2018-07-06T15:53:08.417Z,37.60
2018-07-06T15:58:05.221Z,38.00
2018-07-06T16:00:33.865Z,37.80
2018-07-06T16:03:08.987Z,37.90
2018-07-06T16:05:37.577Z,38.50
2018-07-06T16:08:06.090Z,38.60
2018-07-06T16:10:35.048Z,38.60
2018-07-06T16:13:03.580Z,38.60
2018-07-06T16:15:32.084Z,38.60
2018-07-06T16:18:00.910Z,38.70
2018-07-06T16:20:29.553Z,38.80
2018-07-06T16:22:58.235Z,38.50
2018-07-06T16:25:27.678Z,37.70
2018-07-06T16:27:56.241Z,38.40
2018-07-06T16:30:24.743Z,37.50
2018-07-06T16:32:53.623Z,38.30
2018-07-06T16:35:22.101Z,38.60
2018-07-06T16:37:50.688Z,38.80
2018-07-06T16:40:19.419Z,39.20
2018-07-06T16:42:48.221Z,38.80
2018-07-06T16:45:16.791Z,39.00
2018-07-06T16:47:45.517Z,38.90
2018-07-06T16:52:42.461Z,38.70
2018-07-06T16:57:39.704Z,39.60
2018-07-06T17:00:08.576Z,39.70
2018-07-06T17:02:37.268Z,39.70
2018-07-06T17:05:05.907Z,39.70
2018-07-06T17:07:34.672Z,39.80
2018-07-06T17:10:03.252Z,39.30
2018-07-06T17:12:31.806Z,39.50
2018-07-06T17:15:00.534Z,39.40
2018-07-06T17:17:29.119Z,39.60
2018-07-06T17:19:57.658Z,39.60
2018-07-06T17:22:26.233Z,40.10
2018-07-06T17:24:54.758Z,40.30
2018-07-06T17:27:23.305Z,40.10
2018-07-06T17:29:52.003Z,40.10
2018-07-06T17:32:20.656Z,40.10
2018-07-06T17:34:49.224Z,40.30
2018-07-06T17:37:17.795Z,40.60
2018-07-06T17:39:46.641Z,40.80
2018-07-06T17:42:15.280Z,40.50
2018-07-06T17:44:43.900Z,40.50
2018-07-06T17:47:12.538Z,40.80
2018-07-06T17:49:41.388Z,40.90
2018-07-06T17:52:11.055Z,40.60
2018-07-06T17:54:39.610Z,40.60
2018-07-06T17:57:08.557Z,40.50
2018-07-06T17:59:37.307Z,40.40
2018-07-06T18:02:06.213Z,40.20
2018-07-06T18:04:34.951Z,40.30
2018-07-06T18:07:03.593Z,40.40
2018-07-06T18:09:32.276Z,40.60
2018-07-06T18:12:00.897Z,40.50
2018-07-06T18:14:29.500Z,40.50
2018-07-06T18:16:58.157Z,40.30
2018-07-06T18:19:26.742Z,40.20
2018-07-06T18:21:55.294Z,40.60
2018-07-06T18:24:23.805Z,40.00
2018-07-06T18:26:52.326Z,40.00
2018-07-06T18:29:20.860Z,40.10
2018-07-06T18:31:49.629Z,40.80
2018-07-06T18:36:46.510Z,41.00
2018-07-06T18:39:15.296Z,41.50
2018-07-06T18:41:43.893Z,41.50
2018-07-06T18:44:12.409Z,41.60
2018-07-06T18:46:40.954Z,41.90
2018-07-06T18:49:09.738Z,42.30
2018-07-06T18:51:38.345Z,42.60
2018-07-06T18:54:07.294Z,43.10
2018-07-06T18:56:36.182Z,43.40
2018-07-06T18:59:05.176Z,43.20
2018-07-06T19:04:02.016Z,43.80
2018-07-06T19:06:30.708Z,44.00
2018-07-06T19:08:59.539Z,43.90
2018-07-06T19:11:28.201Z,44.20
2018-07-06T19:13:57.739Z,44.20
2018-07-06T19:16:26.328Z,44.40
2018-07-06T19:18:54.919Z,44.70
2018-07-06T19:21:23.678Z,44.50
2018-07-06T19:23:52.433Z,44.50
2018-07-06T19:26:21.785Z,44.50
2018-07-06T19:28:50.682Z,44.40
2018-07-06T19:31:19.529Z,44.60
2018-07-06T19:33:48.489Z,44.60
2018-07-06T19:36:17.359Z,44.70
2018-07-06T19:38:45.898Z,44.80
2018-07-06T19:41:15.077Z,45.60
2018-07-06T19:43:43.968Z,45.20
2018-07-06T19:46:12.882Z,45.50
2018-07-06T19:48:41.424Z,45.60
2018-07-06T19:51:10.055Z,46.00
2018-07-06T19:53:38.794Z,46.20
2018-07-06T19:56:07.619Z,46.60
2018-07-06T19:58:36.117Z,46.90
2018-07-06T20:01:04.650Z,47.40
2018-07-06T20:03:33.444Z,47.70
2018-07-06T20:06:02.190Z,47.90
2018-07-06T20:08:31.263Z,48.00
2018-07-06T20:10:59.904Z,48.20
2018-07-06T20:13:28.483Z,48.50
2018-07-06T20:15:57.465Z,48.60
2018-07-06T20:18:26.290Z,48.80
2018-07-06T20:20:54.955Z,48.90
2018-07-06T20:23:23.614Z,49.20
2018-07-06T20:25:52.097Z,49.40
2018-07-06T20:28:20.744Z,49.40
2018-07-06T20:30:49.276Z,49.40
2018-07-06T20:33:17.890Z,49.50
2018-07-06T20:35:46.662Z,49.80
2018-07-06T20:38:15.229Z,49.80
2018-07-06T20:40:44.138Z,50.00
2018-07-06T20:43:12.698Z,50.30
2018-07-06T20:45:41.435Z,50.40
2018-07-06T20:48:10.043Z,50.60
2018-07-06T20:50:38.678Z,50.80
2018-07-06T20:53:07.441Z,50.90
2018-07-06T20:55:36.018Z,51.80
2018-07-06T20:58:04.698Z,51.30
2018-07-06T21:00:33.355Z,51.50
2018-07-06T21:03:02.274Z,51.80
2018-07-06T21:05:30.796Z,52.00
2018-07-06T21:07:59.463Z,52.30
2018-07-06T21:10:28.299Z,52.50
2018-07-06T21:12:57.159Z,52.70
2018-07-06T21:15:25.765Z,52.70
2018-07-06T21:17:54.452Z,52.90
2018-07-06T21:20:23.593Z,53.20
2018-07-06T21:22:52.472Z,53.30
2018-07-06T21:25:21.268Z,53.70
2018-07-06T21:27:49.892Z,53.80
2018-07-06T21:30:18.777Z,53.90
2018-07-06T21:32:47.611Z,54.50
2018-07-06T21:35:16.833Z,53.90
2018-07-06T21:37:45.768Z,53.80
2018-07-06T21:40:14.644Z,54.00
2018-07-06T21:42:43.350Z,54.10
2018-07-06T21:45:11.834Z,54.30
2018-07-06T21:47:40.672Z,54.50
2018-07-06T21:50:09.257Z,54.60
2018-07-06T21:52:37.752Z,54.80
2018-07-06T21:55:06.342Z,54.80
2018-07-06T21:57:34.933Z,55.00
2018-07-06T22:00:03.536Z,55.00
2018-07-06T22:02:32.310Z,55.30
2018-07-06T22:07:29.264Z,55.70
2018-07-06T22:09:57.861Z,56.00
2018-07-06T22:12:26.498Z,56.20
2018-07-06T22:14:55.023Z,56.30
2018-07-06T22:17:23.569Z,56.60
2018-07-06T22:19:52.096Z,56.90
2018-07-06T22:22:20.589Z,57.30
2018-07-06T22:24:49.089Z,57.40
2018-07-06T22:27:17.681Z,57.80
2018-07-06T22:29:46.633Z,57.90
2018-07-06T22:32:15.424Z,58.10
2018-07-06T22:34:44.003Z,58.40
2018-07-06T22:37:12.728Z,58.60
2018-07-06T22:39:41.543Z,58.70
2018-07-06T22:42:10.044Z,58.80
2018-07-06T22:44:38.520Z,59.20
2018-07-06T22:47:07.153Z,59.10
2018-07-06T22:49:35.761Z,59.40
2018-07-06T22:52:04.437Z,59.30
2018-07-06T22:54:32.985Z,60.00
2018-07-06T22:57:01.483Z,60.00
2018-07-06T22:59:30.141Z,60.40
2018-07-06T23:01:58.736Z,60.30
2018-07-06T23:04:27.282Z,60.50
2018-07-06T23:06:56.681Z,60.50
2018-07-06T23:09:25.394Z,60.90
2018-07-06T23:11:53.924Z,61.20
2018-07-06T23:14:22.484Z,61.70
2018-07-06T23:16:50.949Z,62.70
2018-07-06T23:19:19.642Z,63.00
2018-07-06T23:21:48.160Z,62.70
2018-07-06T23:24:16.945Z,62.80
2018-07-06T23:26:45.693Z,63.20
2018-07-06T23:29:14.526Z,63.80
2018-07-06T23:31:43.339Z,63.90
2018-07-06T23:34:12.054Z,64.20
2018-07-06T23:36:40.759Z,64.10
2018-07-06T23:41:37.825Z,65.10
2018-07-06T23:44:06.618Z,64.30
2018-07-06T23:46:35.380Z,64.10
2018-07-06T23:49:03.853Z,63.60
2018-07-06T23:51:32.611Z,63.60
2018-07-06T23:54:01.139Z,64.00
2018-07-06T23:56:29.867Z,63.50
2018-07-06T23:58:58.397Z,63.30
